Time;durP1;ratioP1;P1;durP2;ratioP2;P2;SDS_P1;SDS_P2;PMS_P1;PMS_P2;Temp;Humidity;BMP_temperature;BMP_pressure;BME280_temperature;BME280_humidity;BME280_pressure;Samples;Min_cycle;Max_cycle;Signal;HPM_P1;HPM_P2
2021/11/10 00:00:07;;;;;;;40.03;36.42;;;20.60;99.90;;;;;;5015532;28;20026;-77
2021/11/10 00:02:34;;;;;;;40.30;36.63;;;20.60;99.90;;;;;;5014046;28;20026;-77
2021/11/10 00:05:02;;;;;;;40.22;36.50;;;20.60;99.90;;;;;;5015230;28;20053;-77
2021/11/10 00:07:29;;;;;;;40.88;37.38;;;20.70;99.90;;;;;;5015465;28;20443;-77
2021/11/10 00:09:56;;;;;;;40.50;37.03;;;20.70;99.90;;;;;;5014111;28;20084;-76
2021/11/10 00:12:24;;;;;;;40.20;36.67;;;20.60;99.90;;;;;;5015104;28;20364;-76
2021/11/10 00:14:51;;;;;;;39.20;35.78;;;20.70;99.90;;;;;;5015221;28;20050;-78
2021/11/10 00:17:19;;;;;;;39.15;35.50;;;20.80;99.90;;;;;;5015277;28;20026;-78
2021/11/10 00:19:46;;;;;;;39.95;36.35;;;20.90;99.90;;;;;;5015215;28;20434;-78
2021/11/10 00:22:14;;;;;;;38.85;35.50;;;21.00;99.90;;;;;;5015328;28;20041;-76
2021/11/10 00:24:41;;;;;;;40.50;37.35;;;21.10;99.90;;;;;;5014969;28;20026;-77
2021/11/10 00:27:09;;;;;;;42.80;39.08;;;21.30;99.90;;;;;;5013969;28;20022;-77
2021/11/10 00:29:36;;;;;;;39.55;36.03;;;21.50;99.90;;;;;;5013613;28;20064;-76
2021/11/10 00:32:04;;;;;;;38.10;34.83;;;21.60;99.90;;;;;;5013482;28;20045;-75
2021/11/10 00:34:31;;;;;;;37.63;34.35;;;21.60;99.90;;;;;;5013513;28;20033;-76
2021/11/10 00:36:58;;;;;;;37.75;34.38;;;21.70;99.90;;;;;;5014567;28;20022;-76
2021/11/10 00:39:26;;;;;;;37.63;34.28;;;21.70;99.90;;;;;;5013520;28;20140;-76
2021/11/10 00:41:56;;;;;;;38.15;34.33;;;21.70;99.90;;;;;;5014772;28;20029;-75
2021/11/10 00:44:23;;;;;;;37.83;34.42;;;21.70;99.90;;;;;;5014690;28;20467;-76
2021/11/10 00:46:51;;;;;;;36.50;33.58;;;21.70;99.90;;;;;;5013211;28;20026;-75
2021/11/10 00:49:18;;;;;;;36.40;33.13;;;21.60;99.90;;;;;;5014201;28;20026;-76
2021/11/10 00:51:45;;;;;;;37.40;34.17;;;21.30;99.90;;;;;;5013942;28;20018;-75
2021/11/10 00:54:13;;;;;;;38.13;34.78;;;21.30;99.90;;;;;;5014073;28;20097;-75
2021/11/10 00:56:41;;;;;;;36.40;33.40;;;21.30;99.90;;;;;;5014320;28;20409;-76
2021/11/10 00:59:09;;;;;;;38.05;34.70;;;21.30;99.90;;;;;;5013844;28;20037;-77
2021/11/10 01:01:36;;;;;;;39.33;35.72;;;21.30;99.90;;;;;;5013104;28;20483;-76
2021/11/10 01:04:03;;;;;;;37.90;34.55;;;21.10;99.90;;;;;;5012613;28;20022;-76
2021/11/10 01:06:34;;;;;;;39.83;36.17;;;21.00;99.90;;;;;;5014202;28;20433;-77
2021/11/10 01:09:01;;;;;;;39.40;35.95;;;21.00;99.90;;;;;;5012906;28;20026;-77
2021/11/10 01:11:29;;;;;;;40.17;36.67;;;20.80;99.90;;;;;;5014327;28;20029;-77
2021/11/10 01:13:56;;;;;;;40.58;37.00;;;20.90;99.90;;;;;;5014230;28;20376;-77
2021/11/10 01:16:24;;;;;;;43.00;38.95;;;20.70;99.90;;;;;;5014268;28;20101;-77
2021/11/10 01:18:54;;;;;;;43.33;39.22;;;20.60;99.90;;;;;;5014428;28;20057;-77
2021/11/10 01:21:21;;;;;;;52.72;41.40;;;20.40;99.90;;;;;;5014248;28;20037;-75
2021/11/10 01:23:48;;;;;;;44.63;40.13;;;20.40;99.90;;;;;;5013876;28;20018;-75
2021/11/10 01:26:16;;;;;;;42.38;38.13;;;20.30;99.90;;;;;;5012796;28;20080;-74
2021/11/10 01:28:43;;;;;;;41.65;37.45;;;20.10;99.90;;;;;;5013856;28;20054;-74
2021/11/10 01:31:10;;;;;;;40.85;37.05;;;20.00;99.90;;;;;;5013857;28;20578;-75
2021/11/10 01:33:38;;;;;;;43.65;39.10;;;20.00;99.90;;;;;;5013703;28;20017;-74
2021/11/10 01:36:05;;;;;;;45.05;40.78;;;20.00;99.90;;;;;;5013976;28;20054;-75
2021/11/10 01:38:32;;;;;;;45.00;40.35;;;20.00;99.90;;;;;;5012664;28;20030;-75
2021/11/10 01:41:00;;;;;;;47.53;42.55;;;20.10;99.90;;;;;;5013926;28;20048;-75
2021/11/10 01:43:28;;;;;;;46.17;41.42;;;20.00;99.90;;;;;;5013651;28;20133;-74
2021/11/10 01:45:56;;;;;;;48.92;43.00;;;20.00;99.90;;;;;;5013710;28;20390;-74
2021/11/10 01:48:24;;;;;;;47.83;43.13;;;20.10;99.90;;;;;;5012271;28;20112;-74
2021/11/10 01:50:53;;;;;;;45.70;41.17;;;20.00;99.90;;;;;;5013638;28;20049;-74
2021/11/10 01:53:20;;;;;;;44.97;40.67;;;20.00;99.90;;;;;;5013758;28;20057;-74
2021/11/10 01:55:49;;;;;;;45.17;40.50;;;19.90;99.90;;;;;;5013555;28;20062;-74
2021/11/10 01:58:16;;;;;;;45.22;40.80;;;20.00;99.90;;;;;;5013749;28;20034;-74
2021/11/10 02:00:45;;;;;;;45.47;41.08;;;20.00;99.90;;;;;;5013601;28;20497;-74
2021/11/10 02:03:13;;;;;;;47.83;42.75;;;20.00;99.90;;;;;;5012275;28;20534;-74
2021/11/10 02:05:40;;;;;;;47.20;42.33;;;19.90;99.90;;;;;;5015781;28;20026;-74
2021/11/10 02:08:08;;;;;;;46.95;42.13;;;19.90;99.90;;;;;;5017250;28;20427;-75
2021/11/10 02:10:36;;;;;;;45.85;41.20;;;19.90;99.90;;;;;;5017259;28;20026;-75
2021/11/10 02:13:05;;;;;;;43.83;39.45;;;19.80;99.90;;;;;;5016951;28;20022;-74
2021/11/10 02:15:33;;;;;;;43.27;39.13;;;19.80;99.90;;;;;;5015662;28;20053;-74
2021/11/10 02:18:05;;;;;;;42.42;38.55;;;19.70;99.90;;;;;;5015713;28;20033;-74
2021/11/10 02:20:35;;;;;;;42.03;38.15;;;19.70;99.90;;;;;;5017155;28;20395;-73
2021/11/10 02:23:03;;;;;;;;;;;19.70;99.90;;;;;;5017337;28;20025;-74
2021/11/10 02:25:30;;;;;;;42.47;38.28;;;19.70;99.90;;;;;;5017031;28;19984;-74
2021/11/10 02:27:58;;;;;;;45.17;40.35;;;19.80;99.90;;;;;;5016766;28;20471;-74
2021/11/10 02:30:27;;;;;;;45.25;40.85;;;19.80;99.90;;;;;;5016737;28;20029;-74
2021/11/10 02:32:58;;;;;;;45.22;40.60;;;19.80;99.90;;;;;;5017018;28;20022;-74
2021/11/10 02:35:29;;;;;;;45.35;40.75;;;19.70;99.90;;;;;;5016863;28;20479;-74
2021/11/10 02:38:04;;;;;;;45.58;40.97;;;19.80;99.90;;;;;;5016680;28;20024;-73
2021/11/10 02:40:32;;;;;;;45.10;40.47;;;19.80;99.90;;;;;;5016833;28;20072;-76
2021/11/10 02:43:00;;;;;;;45.13;40.45;;;19.80;99.90;;;;;;5016430;28;20037;-74
2021/11/10 02:45:31;;;;;;;44.17;39.88;;;19.80;99.90;;;;;;5015184;28;20026;-74
2021/11/10 02:47:59;;;;;;;42.97;38.65;;;19.80;99.90;;;;;;5016603;28;20426;-74
2021/11/10 02:50:31;;;;;;;43.63;39.25;;;19.80;99.90;;;;;;5016571;28;20025;-74
2021/11/10 02:52:59;;;;;;;42.28;38.28;;;19.80;99.90;;;;;;5016364;28;20018;-74
2021/11/10 02:55:27;;;;;;;42.70;38.70;;;19.80;99.90;;;;;;5014864;28;20022;-74
2021/11/10 02:57:55;;;;;;;42.20;38.25;;;19.90;99.90;;;;;;5015314;28;20030;-73
2021/11/10 03:00:22;;;;;;;43.22;39.20;;;19.90;99.90;;;;;;5016646;28;20029;-74
2021/11/10 03:02:52;;;;;;;42.00;38.10;;;20.00;99.90;;;;;;5014988;28;20026;-74
2021/11/10 03:05:19;;;;;;;40.77;37.07;;;20.00;99.90;;;;;;5016101;28;20022;-74
2021/11/10 03:07:47;;;;;;;41.15;37.17;;;19.90;99.90;;;;;;5014872;28;20037;-74
2021/11/10 03:10:15;;;;;;;39.75;36.20;;;19.90;99.90;;;;;;5016150;28;20026;-73
2021/11/10 03:12:44;;;;;;;40.85;37.03;;;20.00;99.90;;;;;;5016144;28;20026;-72
2021/11/10 03:15:11;;;;;;;39.42;36.08;;;20.00;99.90;;;;;;5015628;28;20104;-74
2021/11/10 03:17:39;;;;;;;38.10;34.78;;;19.90;99.90;;;;;;5014618;28;20058;-74
2021/11/10 03:20:08;;;;;;;38.65;35.13;;;19.80;99.90;;;;;;5015851;28;20463;-74
2021/11/10 03:22:36;;;;;;;38.28;34.88;;;19.80;99.90;;;;;;5015849;28;20388;-74
2021/11/10 03:25:05;;;;;;;37.83;34.63;;;19.60;99.90;;;;;;5014533;28;20106;-74
2021/11/10 03:27:32;;;;;;;36.65;33.55;;;19.60;99.90;;;;;;5015657;28;20124;-74
2021/11/10 03:30:00;;;;;;;37.75;34.53;;;19.60;99.90;;;;;;5014255;28;20109;-74
2021/11/10 03:32:27;;;;;;;37.55;34.35;;;19.60;99.90;;;;;;5015454;28;20030;-74
2021/11/10 03:34:54;;;;;;;36.65;33.55;;;19.50;99.90;;;;;;5015362;28;20365;-74
2021/11/10 03:37:22;;;;;;;36.22;33.40;;;19.50;99.90;;;;;;5015511;28;20030;-74
2021/11/10 03:39:49;;;;;;;35.65;32.80;;;19.60;99.90;;;;;;5015502;28;20021;-78
2021/11/10 03:42:18;;;;;;;36.90;33.72;;;19.60;99.90;;;;;;5015002;28;20096;-74
2021/11/10 03:44:45;;;;;;;34.50;32.00;;;19.60;99.90;;;;;;5013984;28;20018;-74
2021/11/10 03:47:12;;;;;;;36.42;33.63;;;19.70;99.90;;;;;;5015479;28;20026;-74
2021/11/10 03:49:40;;;;;;;36.00;33.33;;;19.70;99.90;;;;;;5015198;28;20026;-74
2021/11/10 03:52:07;;;;;;;36.22;33.53;;;19.70;99.90;;;;;;5015301;28;20165;-74
2021/11/10 03:54:35;;;;;;;36.13;32.90;;;19.80;99.90;;;;;;5015136;28;20026;-73
2021/11/10 03:57:03;;;;;;;36.63;33.67;;;19.80;99.90;;;;;;5015143;28;20038;-73
2021/11/10 03:59:30;;;;;;;37.72;34.53;;;19.80;99.90;;;;;;5015046;28;20014;-74
2021/11/10 04:01:57;;;;;;;36.33;33.45;;;19.80;99.90;;;;;;5013503;28;20040;-74
2021/11/10 04:04:25;;;;;;;35.75;32.92;;;19.90;99.90;;;;;;5014906;28;20024;-74
2021/11/10 04:06:52;;;;;;;35.97;33.03;;;19.80;99.90;;;;;;5013745;28;20026;-74
2021/11/10 04:09:19;;;;;;;34.95;31.88;;;19.80;99.90;;;;;;5014800;28;20025;-74
2021/11/10 04:11:47;;;;;;;34.90;32.20;;;19.80;99.90;;;;;;5013682;28;20169;-74
2021/11/10 04:14:15;;;;;;;35.28;32.40;;;19.90;99.90;;;;;;5015114;28;20018;-74
2021/11/10 04:16:42;;;;;;;35.50;32.67;;;19.90;99.90;;;;;;5014799;28;20387;-74
2021/11/10 04:19:10;;;;;;;36.10;33.00;;;19.90;99.90;;;;;;5013358;28;20117;-74
2021/11/10 04:21:37;;;;;;;35.85;33.08;;;19.90;99.90;;;;;;5014815;28;20026;-73
2021/11/10 04:24:06;;;;;;;36.28;33.30;;;19.80;99.90;;;;;;5013364;28;20022;-73
2021/11/10 04:26:36;;;;;;;34.95;31.88;;;19.90;99.90;;;;;;5014600;28;20025;-73
2021/11/10 04:29:04;;;;;;;;;;;19.80;99.90;;;;;;5014268;28;20080;-73
2021/11/10 04:31:32;;;;;;;35.65;32.75;;;19.80;99.90;;;;;;5014409;28;19955;-73
2021/11/10 04:34:01;;;;;;;34.03;31.15;;;19.70;99.90;;;;;;5014492;28;20544;-74
2021/11/10 04:36:30;;;;;;;33.10;30.50;;;19.70;99.90;;;;;;5012979;28;20102;-74
2021/11/10 04:38:57;;;;;;;34.40;31.42;;;19.70;99.90;;;;;;5014048;28;20028;-73
2021/11/10 04:41:25;;;;;;;35.72;32.53;;;19.70;99.90;;;;;;5013976;28;20049;-73
2021/11/10 04:43:53;;;;;;;34.75;31.95;;;19.70;99.90;;;;;;5012643;28;20483;-73
2021/11/10 04:48:49;;;;;;;36.00;32.70;;;19.70;99.90;;;;;;5014325;28;20029;-73
2021/11/10 04:51:18;;;;;;;34.40;31.60;;;19.70;99.90;;;;;;5012564;28;20030;-74
2021/11/10 04:53:47;;;;;;;36.45;33.28;;;19.80;99.90;;;;;;5012526;28;20034;-75
2021/11/10 04:56:16;;;;;;;34.42;31.65;;;19.80;99.90;;;;;;5013735;28;20069;-73
2021/11/10 04:58:43;;;;;;;35.00;32.08;;;19.90;99.90;;;;;;5013549;28;20372;-74
2021/11/10 05:04:07;;;;;;;35.40;32.47;;;20.20;99.90;;;;;;4977433;28;20035;-73
2021/11/10 05:06:35;;;;;;;34.80;31.83;;;20.50;99.90;;;;;;5012415;28;20032;-74
2021/11/10 05:09:02;;;;;;;33.83;31.20;;;20.60;99.90;;;;;;5013885;28;20367;-74
2021/11/10 05:11:30;;;;;;;34.38;31.70;;;20.70;99.90;;;;;;5013410;28;20055;-73
2021/11/10 05:13:58;;;;;;;34.78;32.13;;;20.70;99.90;;;;;;5013654;28;20105;-73
2021/11/10 05:16:25;;;;;;;34.13;31.73;;;20.70;99.90;;;;;;5013507;28;20026;-73
2021/11/10 05:18:52;;;;;;;35.60;33.13;;;20.60;99.90;;;;;;5013897;28;20022;-73
2021/11/10 05:21:20;;;;;;;34.13;31.83;;;20.70;99.90;;;;;;5013560;28;20022;-73
2021/11/10 05:23:47;;;;;;;34.78;31.83;;;20.70;99.90;;;;;;5012206;28;20510;-72
2021/11/10 05:26:14;;;;;;;33.13;30.92;;;20.70;99.90;;;;;;5012365;28;20080;-73
2021/11/10 05:28:42;;;;;;;33.42;30.95;;;20.70;99.90;;;;;;5013335;28;20025;-72
2021/11/10 05:31:09;;;;;;;32.38;30.08;;;20.50;99.90;;;;;;5013449;28;20029;-72
2021/11/10 05:33:36;;;;;;;31.27;28.98;;;20.40;99.90;;;;;;5013748;28;20495;-72
2021/11/10 05:36:04;;;;;;;32.67;30.40;;;20.40;99.90;;;;;;5012499;28;20030;-72
2021/11/10 05:38:32;;;;;;;32.88;30.73;;;20.40;99.90;;;;;;5012813;28;20116;-72
2021/11/10 05:40:59;;;;;;;33.45;30.67;;;20.30;99.90;;;;;;5016580;28;20022;-72
2021/11/10 05:43:27;;;;;;;32.33;30.02;;;20.20;99.90;;;;;;5017750;28;20030;-72
2021/11/10 05:45:54;;;;;;;32.47;29.77;;;20.10;99.90;;;;;;5017978;28;20025;-72
2021/11/10 05:48:22;;;;;;;31.58;29.05;;;20.10;99.90;;;;;;5017574;28;20022;-72
2021/11/10 05:50:49;;;;;;;32.72;29.98;;;20.00;99.90;;;;;;5016570;28;20487;-72
2021/11/10 05:53:17;;;;;;;32.33;29.83;;;20.00;99.90;;;;;;5017503;28;20518;-72
2021/11/10 05:55:45;;;;;;;33.80;30.98;;;19.80;99.90;;;;;;5016989;28;20045;-71
2021/11/10 05:58:15;;;;;;;33.75;30.85;;;19.80;99.90;;;;;;5015785;28;20057;-71
2021/11/10 06:00:42;;;;;;;32.58;29.90;;;19.70;99.90;;;;;;5016835;28;20454;-72
2021/11/10 06:03:10;;;;;;;33.15;30.13;;;19.70;99.90;;;;;;5016979;28;20014;-72
2021/11/10 06:05:37;;;;;;;32.72;30.10;;;19.60;99.90;;;;;;5016998;28;20109;-72
2021/11/10 06:08:05;;;;;;;31.83;29.30;;;19.60;99.90;;;;;;5016767;28;20391;-72
2021/11/10 06:10:35;;;;;;;29.23;26.80;;;19.60;99.90;;;;;;5015382;28;20150;-71
2021/11/10 06:13:02;;;;;;;30.73;28.10;;;19.50;99.90;;;;;;5017191;28;20107;-72
2021/11/10 06:15:30;;;;;;;29.58;27.17;;;19.50;99.90;;;;;;5016623;28;20483;-71
2021/11/10 06:17:57;;;;;;;30.20;27.80;;;19.60;99.90;;;;;;5016707;28;20026;-72
2021/11/10 06:20:24;;;;;;;29.02;26.42;;;19.50;99.90;;;;;;5016433;28;20026;-71
2021/11/10 06:22:52;;;;;;;29.08;26.65;;;19.60;99.90;;;;;;5016392;28;20101;-72
2021/11/10 06:25:19;;;;;;;30.08;27.52;;;19.50;99.90;;;;;;5016468;28;20486;-72
2021/11/10 06:27:46;;;;;;;28.30;26.23;;;19.70;99.90;;;;;;5016462;28;20141;-72
2021/11/10 06:30:15;;;;;;;28.17;25.98;;;19.70;99.90;;;;;;5015117;28;20394;-72
2021/11/10 06:32:45;;;;;;;28.40;26.08;;;19.80;99.90;;;;;;5016390;28;20029;-72
2021/11/10 06:35:13;;;;;;;27.15;25.25;;;19.80;99.90;;;;;;5016495;28;20030;-72
2021/11/10 06:37:41;;;;;;;27.55;25.70;;;19.80;99.90;;;;;;5016378;28;20037;-73
2021/11/10 06:40:10;;;;;;;29.33;27.05;;;19.80;99.90;;;;;;5016404;28;20022;-72
2021/11/10 06:42:38;;;;;;;29.40;26.92;;;19.80;99.90;;;;;;5016587;28;20034;-73
2021/11/10 06:45:06;;;;;;;27.90;25.70;;;19.90;99.90;;;;;;5016679;28;20025;-72
2021/11/10 06:47:34;;;;;;;28.67;26.27;;;19.80;99.90;;;;;;5016355;28;20387;-73
2021/11/10 06:50:03;;;;;;;27.85;25.95;;;19.80;99.90;;;;;;5016038;28;20034;-72
2021/11/10 06:52:30;;;;;;;27.27;25.48;;;19.80;99.90;;;;;;5015998;28;20018;-72
2021/11/10 06:54:58;;;;;;;28.13;26.10;;;19.80;99.90;;;;;;5016195;28;20022;-73
2021/11/10 06:57:25;;;;;;;28.58;26.50;;;19.70;99.90;;;;;;5014844;28;20061;-72
2021/11/10 06:59:53;;;;;;;28.33;26.23;;;19.70;99.90;;;;;;5016105;28;20391;-72
2021/11/10 07:02:20;;;;;;;26.25;24.27;;;19.70;99.90;;;;;;5015879;28;20017;-72
2021/11/10 07:04:48;;;;;;;26.63;24.48;;;19.70;99.90;;;;;;5015912;28;20033;-72
2021/11/10 07:07:15;;;;;;;26.50;24.55;;;19.70;99.90;;;;;;5015803;28;20075;-71
2021/11/10 07:09:43;;;;;;;25.95;23.77;;;19.60;99.90;;;;;;5015765;28;20430;-72
2021/11/10 07:12:11;;;;;;;25.90;23.85;;;19.60;99.90;;;;;;5016059;28;20024;-72
2021/11/10 07:14:38;;;;;;;26.77;24.75;;;19.50;99.90;;;;;;5014466;28;20151;-72
2021/11/10 07:17:05;;;;;;;26.08;24.27;;;19.50;99.90;;;;;;5016190;28;20018;-72
2021/11/10 07:19:34;;;;;;;26.75;24.67;;;19.60;99.90;;;;;;5016170;28;20018;-73
2021/11/10 07:22:02;;;;;;;25.75;23.85;;;19.50;99.90;;;;;;5016263;28;20034;-73
2021/11/10 07:24:29;;;;;;;25.70;23.77;;;19.50;99.90;;;;;;5016206;28;20014;-73
2021/11/10 07:26:58;;;;;;;24.58;22.95;;;19.50;99.90;;;;;;5016082;28;20040;-72
2021/11/10 07:29:28;;;;;;;25.33;23.48;;;19.50;99.90;;;;;;5015918;28;20089;-72
2021/11/10 07:31:57;;;;;;;24.85;23.10;;;19.50;99.90;;;;;;5014970;28;20029;-72
2021/11/10 07:34:24;;;;;;;25.02;23.00;;;19.40;99.90;;;;;;5015955;28;20056;-72
2021/11/10 07:36:51;;;;;;;25.00;23.08;;;19.40;99.90;;;;;;5014456;28;20463;-72
2021/11/10 07:39:19;;;;;;;24.40;22.67;;;19.40;99.90;;;;;;5013919;28;20029;-71
2021/11/10 07:41:50;;;;;;;24.70;22.80;;;19.40;99.90;;;;;;5015748;28;20101;-71
2021/11/10 07:44:17;;;;;;;;;;;19.40;99.90;;;;;;5016564;28;20029;-72
2021/11/10 07:47:03;;;;;;;25.15;23.17;;;19.40;99.90;;;;;;5014445;28;19905;-71
2021/11/10 07:49:30;;;;;;;25.20;23.40;;;19.40;99.90;;;;;;5015041;28;20487;-71
2021/11/10 07:51:59;;;;;;;24.27;22.40;;;19.30;99.90;;;;;;5014274;28;20029;-71
2021/11/10 07:54:27;;;;;;;25.67;23.83;;;19.30;99.90;;;;;;5015351;28;20099;-71
2021/11/10 07:56:54;;;;;;;24.60;22.85;;;19.40;99.90;;;;;;5014859;28;20380;-71
2021/11/10 07:59:22;;;;;;;24.35;22.48;;;19.30;99.90;;;;;;5015122;28;20030;-72
2021/11/10 08:01:49;;;;;;;24.77;22.88;;;19.30;99.90;;;;;;5015660;28;20022;-71
2021/11/10 08:04:16;;;;;;;25.77;23.58;;;19.30;99.90;;;;;;5015356;28;20545;-72
2021/11/10 08:06:44;;;;;;;26.10;24.00;;;19.30;99.90;;;;;;5013956;28;20045;-73
2021/11/10 08:09:11;;;;;;;26.20;24.00;;;19.30;99.90;;;;;;5015004;28;20088;-74
2021/11/10 08:11:39;;;;;;;24.65;22.95;;;19.30;99.90;;;;;;5014900;28;20026;-72
2021/11/10 08:14:07;;;;;;;26.25;24.23;;;19.30;99.90;;;;;;5015051;28;20482;-72
2021/11/10 08:16:35;;;;;;;25.77;23.77;;;19.30;99.90;;;;;;5015027;28;20033;-71
2021/11/10 08:19:02;;;;;;;26.20;24.02;;;19.30;99.90;;;;;;5013252;28;20037;-71
2021/11/10 08:21:29;;;;;;;26.48;24.27;;;19.30;99.90;;;;;;5013150;28;20018;-71
2021/11/10 08:23:58;;;;;;;26.35;24.35;;;19.30;99.90;;;;;;5014566;28;20101;-72
2021/11/10 08:26:26;;;;;;;25.67;23.52;;;19.30;99.90;;;;;;5013268;28;20025;-71
2021/11/10 08:28:53;;;;;;;26.33;24.25;;;19.30;99.90;;;;;;5014705;28;20030;-71
2021/11/10 08:31:20;;;;;;;26.33;24.30;;;19.30;99.90;;;;;;5014515;28;20164;-72
2021/11/10 08:33:47;;;;;;;27.45;25.35;;;19.30;99.90;;;;;;5014481;28;20056;-70
2021/11/10 08:36:15;;;;;;;26.40;24.35;;;19.30;99.90;;;;;;5014496;28;20395;-69
2021/11/10 08:38:42;;;;;;;27.10;24.88;;;19.20;99.90;;;;;;5014137;28;20018;-71
2021/11/10 08:41:10;;;;;;;27.08;25.05;;;19.20;99.90;;;;;;5014293;28;20056;-71
2021/11/10 08:43:37;;;;;;;27.25;24.73;;;19.20;99.90;;;;;;5014473;28;20026;-71
2021/11/10 08:46:07;;;;;;;25.95;23.95;;;19.20;99.90;;;;;;5014378;28;20076;-72
2021/11/10 08:48:37;;;;;;;26.73;24.67;;;19.20;99.90;;;;;;5014292;28;20113;-71
2021/11/10 08:51:04;;;;;;;25.75;23.75;;;19.20;99.90;;;;;;5014279;28;20037;-72
2021/11/10 08:53:32;;;;;;;26.08;24.08;;;19.20;99.90;;;;;;5012686;28;20029;-71
2021/11/10 08:56:00;;;;;;;26.58;24.45;;;19.20;99.90;;;;;;5013964;28;20100;-73
2021/11/10 08:58:28;;;;;;;26.85;24.77;;;19.10;99.90;;;;;;5012449;28;20038;-71
2021/11/10 09:00:57;;;;;;;26.75;24.63;;;19.10;99.90;;;;;;5012434;28;20017;-71
2021/11/10 09:03:26;;;;;;;26.65;24.75;;;19.20;99.90;;;;;;5012752;28;20113;-71
2021/11/10 09:05:54;;;;;;;27.27;25.15;;;19.20;99.90;;;;;;5012902;28;20113;-71
2021/11/10 09:08:25;;;;;;;26.77;24.77;;;19.20;99.90;;;;;;5014140;28;20052;-71
2021/11/10 09:10:53;;;;;;;27.02;24.92;;;19.20;99.90;;;;;;5014109;28;20022;-70
2021/11/10 09:13:21;;;;;;;28.25;26.23;;;19.20;99.90;;;;;;5013476;28;20022;-71
2021/11/10 09:15:49;;;;;;;29.83;27.48;;;19.10;99.90;;;;;;5014003;28;20029;-71
2021/11/10 09:18:16;;;;;;;29.80;27.48;;;19.10;99.90;;;;;;5013896;28;20026;-71
2021/11/10 09:20:45;;;;;;;30.05;27.75;;;19.10;99.90;;;;;;5013662;28;20041;-71
2021/11/10 09:23:15;;;;;;;28.65;26.65;;;19.20;99.90;;;;;;5013765;28;20018;-71
2021/11/10 09:25:44;;;;;;;;;;;19.20;99.90;;;;;;5014543;28;20053;-71
2021/11/10 09:28:14;;;;;;;29.10;27.00;;;19.20;99.90;;;;;;5012425;28;20366;-71
2021/11/10 09:30:42;;;;;;;28.23;25.88;;;19.10;99.90;;;;;;5013568;28;20030;-71
2021/11/10 09:33:11;;;;;;;28.10;26.00;;;19.10;99.90;;;;;;5013671;28;20084;-71
2021/11/10 09:35:41;;;;;;;28.42;26.33;;;19.20;99.90;;;;;;5013267;28;20072;-71
2021/11/10 09:38:09;;;;;;;28.58;26.35;;;19.20;99.90;;;;;;5012089;28;20399;-72
2021/11/10 09:40:39;;;;;;;28.00;25.83;;;19.20;99.90;;;;;;5013338;28;20029;-71
2021/11/10 09:43:07;;;;;;;28.80;26.67;;;19.20;99.90;;;;;;5013572;28;20072;-71
2021/11/10 09:45:36;;;;;;;28.25;26.40;;;19.20;99.90;;;;;;5012159;28;20026;-71
2021/11/10 09:48:08;;;;;;;28.05;26.05;;;19.20;99.90;;;;;;5013434;28;20096;-71
2021/11/10 09:50:44;;;;;;;28.38;26.27;;;19.10;99.90;;;;;;5013457;28;20022;-71
2021/11/10 09:53:12;;;;;;;28.48;26.38;;;19.10;99.90;;;;;;5012047;28;20037;-72
2021/11/10 09:55:40;;;;;;;28.20;26.10;;;19.10;99.90;;;;;;5013097;28;20038;-73
2021/11/10 09:58:08;;;;;;;28.52;26.38;;;19.10;99.90;;;;;;5013395;28;20034;-71
2021/11/10 10:00:51;;;;;;;28.88;26.67;;;19.10;99.90;;;;;;5013406;28;20021;-71
2021/11/10 10:03:19;;;;;;;28.23;25.92;;;19.10;99.90;;;;;;5013307;28;20472;-72
2021/11/10 10:05:48;;;;;;;27.15;25.08;;;19.00;99.90;;;;;;5011963;28;20139;-72
2021/11/10 10:08:17;;;;;;;27.23;25.10;;;19.00;99.90;;;;;;5012240;28;20033;-72
2021/11/10 10:10:46;;;;;;;27.23;24.85;;;19.00;99.90;;;;;;5011934;28;20513;-71
2021/11/10 10:13:16;;;;;;;27.23;25.23;;;19.00;99.90;;;;;;5013117;28;20053;-71
2021/11/10 10:15:45;;;;;;;26.05;24.13;;;18.90;99.90;;;;;;5013190;28;20386;-71
2021/11/10 10:18:22;;;;;;;26.23;24.33;;;18.90;99.90;;;;;;5013313;28;20029;-73
2021/11/10 10:21:01;;;;;;;26.30;24.50;;;18.90;99.90;;;;;;5013093;28;20033;-71
2021/11/10 10:23:38;;;;;;;24.73;23.13;;;18.90;99.90;;;;;;5011803;28;20026;-71
2021/11/10 10:26:18;;;;;;;24.00;22.40;;;18.90;99.90;;;;;;5014339;28;20113;-71
2021/11/10 10:28:51;;;;;;;24.15;22.55;;;18.80;99.90;;;;;;5016803;28;20026;-72
2021/11/10 10:31:24;;;;;;;24.23;22.63;;;18.80;99.90;;;;;;5017028;28;20108;-72
2021/11/10 10:33:59;;;;;;;23.88;22.30;;;18.80;99.90;;;;;;5016416;28;20030;-72
2021/11/10 10:36:29;;;;;;;23.92;22.33;;;18.80;99.90;;;;;;4999677;28;20545;-71
2021/11/10 10:39:04;;;;;;;25.83;24.13;;;18.70;99.90;;;;;;5016593;28;20482;-71
2021/11/10 10:41:38;;;;;;;25.27;23.63;;;18.70;99.90;;;;;;5016878;28;20502;-71
2021/11/10 10:44:08;;;;;;;25.23;23.50;;;18.70;99.90;;;;;;5016301;28;20088;-72
2021/11/10 10:46:38;;;;;;;26.75;24.90;;;18.70;99.90;;;;;;5016675;28;20487;-72
2021/11/10 10:49:12;;;;;;;26.75;24.95;;;18.70;99.90;;;;;;5015470;28;20030;-71
2021/11/10 10:51:40;;;;;;;28.02;26.05;;;18.70;99.90;;;;;;5014936;28;20030;-73
2021/11/10 10:54:09;;;;;;;27.85;25.85;;;18.70;99.90;;;;;;5015179;28;20030;-72
2021/11/10 10:56:38;;;;;;;27.92;26.05;;;18.80;99.90;;;;;;5016198;28;20046;-73
2021/11/10 10:59:08;;;;;;;28.42;26.48;;;18.70;99.90;;;;;;5016180;28;20479;-72
2021/11/10 11:01:57;;;;;;;27.60;25.80;;;18.70;99.90;;;;;;5015049;28;20072;-72
2021/11/10 11:04:30;;;;;;;28.77;26.73;;;18.70;99.90;;;;;;5015820;28;20041;-71
2021/11/10 11:07:04;;;;;;;31.27;28.98;;;18.70;99.90;;;;;;5016870;28;20022;-71
2021/11/10 11:09:33;;;;;;;29.98;27.88;;;18.70;99.90;;;;;;5016282;28;20088;-71
2021/11/10 11:12:19;;;;;;;31.13;28.92;;;18.70;99.90;;;;;;5014787;28;20022;-72
2021/11/10 11:15:06;;;;;;;31.25;28.85;;;18.70;99.90;;;;;;5016160;28;20017;-72
2021/11/10 11:17:36;;;;;;;30.02;28.02;;;18.70;99.90;;;;;;5016468;28;20030;-72
2021/11/10 11:20:13;;;;;;;30.55;28.42;;;18.70;99.90;;;;;;5014710;28;20476;-71
2021/11/10 11:22:44;;;;;;;30.27;28.30;;;18.70;99.90;;;;;;5015879;28;20053;-71
2021/11/10 11:25:17;;;;;;;;;;;18.70;99.90;;;;;;5016302;28;20452;-72
2021/11/10 11:28:13;;;;;;;29.75;27.67;;;18.70;99.90;;;;;;5014460;28;19940;-71
2021/11/10 11:30:52;;;;;;;29.63;27.52;;;18.70;99.90;;;;;;5015682;28;20487;-71
2021/11/10 11:33:21;;;;;;;28.83;26.38;;;18.70;99.90;;;;;;5015752;28;20032;-72
2021/11/10 11:35:57;;;;;;;28.30;26.23;;;18.70;99.90;;;;;;5015852;28;20036;-72
2021/11/10 11:38:28;;;;;;;27.65;25.60;;;18.70;99.90;;;;;;5015386;28;20105;-72
2021/11/10 11:40:58;;;;;;;27.35;25.55;;;18.70;99.90;;;;;;5015720;28;20105;-72
2021/11/10 11:43:28;;;;;;;26.85;25.02;;;18.80;99.90;;;;;;5014426;28;20368;-71
2021/11/10 11:45:58;;;;;;;28.13;26.20;;;18.80;99.90;;;;;;5015561;28;20050;-72
2021/11/10 11:48:27;;;;;;;27.92;26.02;;;18.80;99.90;;;;;;5015372;28;20025;-72
2021/11/10 11:51:03;;;;;;;28.75;26.85;;;18.80;99.90;;;;;;5014022;28;20053;-71
2021/11/10 11:53:34;;;;;;;28.40;26.60;;;18.80;99.90;;;;;;5015716;28;20033;-72
2021/11/10 11:56:06;;;;;;;29.58;27.42;;;18.80;99.90;;;;;;5013900;28;20038;-71
2021/11/10 11:58:38;;;;;;;32.05;29.75;;;18.80;99.90;;;;;;5015370;28;20033;-72
2021/11/10 12:01:13;;;;;;;30.83;28.80;;;18.80;99.90;;;;;;5015321;28;20022;-72
2021/11/10 12:03:43;;;;;;;30.13;28.02;;;18.80;99.90;;;;;;5015418;28;20041;-72
2021/11/10 12:06:10;;;;;;;30.92;28.75;;;18.80;99.90;;;;;;5015177;28;20018;-73
2021/11/10 12:09:01;;;;;;;29.80;27.70;;;18.80;99.90;;;;;;5015405;28;20037;-72
2021/11/10 12:11:42;;;;;;;31.30;29.00;;;18.80;99.90;;;;;;5013856;28;20030;-72
2021/11/10 12:14:21;;;;;;;30.25;28.23;;;18.80;99.90;;;;;;5015171;28;20092;-72
2021/11/10 12:17:06;;;;;;;28.75;26.75;;;18.80;99.90;;;;;;5014054;28;20042;-72
2021/11/10 12:19:42;;;;;;;27.45;25.58;;;18.80;99.90;;;;;;5016693;28;20025;-74
2021/11/10 12:22:13;;;;;;;28.25;26.25;;;18.80;99.90;;;;;;5015157;28;20022;-73
2021/11/10 12:24:44;;;;;;;29.33;27.42;;;18.80;99.90;;;;;;5014856;28;20030;-73
2021/11/10 12:27:32;;;;;;;28.90;26.80;;;18.80;99.90;;;;;;5014949;28;20022;-73
2021/11/10 12:30:13;;;;;;;28.83;26.73;;;18.80;99.90;;;;;;5014367;28;20498;-73
2021/11/10 12:32:40;;;;;;;27.70;25.70;;;18.80;99.90;;;;;;5014816;28;20018;-74
2021/11/10 12:35:18;;;;;;;27.17;25.27;;;18.80;99.90;;;;;;5014376;28;20498;-73
2021/11/10 12:37:49;;;;;;;28.02;26.13;;;18.80;99.90;;;;;;5013399;28;20026;-73
2021/11/10 12:40:24;;;;;;;27.00;25.05;;;18.80;99.90;;;;;;5013354;28;20022;-73
2021/11/10 12:43:00;;;;;;;28.30;26.50;;;18.80;99.90;;;;;;5013545;28;20017;-73